Aeroporto :
LOGIN :

Iscrizione | Disclaimer

   EN    FR    IT 

 










Sommario :    VFR   VFR Marginale   IFR   IFR Intensivo   IFR Molto Intensivo
Visibilità : 
Base nubi : 
>= 8 km
>= 3000ft
5 / 8 km
1000 / 3000 ft
1500m / 5 km
500 / 1000 ft
800 / 1500m
200 / 500 ft
< 800m
< 200 ft
Simboli :   Temporali  Nebbia  Neve Forte  Precipitazioni Forti  Vento > 20 kt
SIGMETs :   Varie  Temporali  Ghiacco  Turbolenza  Onda orograficha  Ceneri Vulcaniche






- Altitudine del aeroporto : 157 ft
- Codice IATA : SXF


EDDB - Berlin Schönefeld

ULTIMO METAR :
  • 150150Z 23010KT CAVOK 03/00 Q1000 NOSIG

METARs OBSOLETI :
  • 150120Z 24011KT CAVOK 04/01 Q1000 TEMPO 25015G25KT
  • 150050Z 24014KT CAVOK 04/01 Q1000 TEMPO 25015G25KT
  • 150020Z 25015KT 9999 FEW027 04/01 Q0999 TEMPO 25015G25KT
  • 142350Z 26018G29KT 9999 SCT023 04/02 Q0999 NOSIG
  • 142320Z 28021KT 9999 BKN018 BKN039 04/02 Q0998 NOSIG

TAF TAF EDDB
Valido dal 15 a 00 ore il 16 a 00 ore UTC


142300Z 1500/1524 23015G25KT 9999 FEW035
BECMG 1501/1503 22010KT
TEMPO 1512/1514 23015G25KT



MetMap, La meteo Aeronautica in un colpo d'occhio ! - Copyright ORBIFLY Dicembre 2007 - Disclaimer

ORBIFLY MET'MAP TEAM :

Programmazione e sviluppo : Alexandra Zaïnal
Concezione : Baudouin d'Aumeries
Aiuto per la programmazione : Marc-Olivier Méhu
Supporto tecnico e logistico : Manuel Goepfert
Aiuto per la traduzione : Arnaldo La Scala

Contatto : metmap@orbifly.com




FONTI E CREDITI :

   NOAA